Hovedside
METAR-TAF:

METAR-TAF

Lufthavner :

Bamako-Sénou internasjonale lufthavn

Bamako, Mali

breddegrad: 12-32N, lengdegrad: 007-57W, høyde over havet: 380 m

Gjeldene værobservasjon

Denne rapporten ble laget for 35 minutter siden, klokken 15:00 UTC
Vind 7 kt fra Øst-nordøst, skiftende mellom Nord og Øst-sørøst
Temperatur 36°C
Luftfuktighet 39%
Trykk 1011 hPa
Sikt 10 km eller mer
Få skyer i en høyde av 2000 ft

METAR: GABS 201500Z 06007KT 010V110 9999 FEW020 36/20 Q1011 NOSIG

Tid: 15:35 (15:35 UTC)

Varsel

Varsel gyldig fra 20. klokken 00 UTC til 21. klokken 06 UTC
Vind 8 kt fra Sørvest
Sikt 10 km eller mer
Få skyer i en høyde av 2500 ft
Sannsynlighet 40% :
Midlertidig
fra 20. klokken 15 UTC til 20. klokken 20 UTC
Vind 15 kt fra skiftende retning med vindkast opp mot 35 kt
Sikt: 4000 m
Spredte skyer i en høyde av 2500 ft
Få skyer i en høyde av 3000 ft, Bygeskyer.
torden, regn

TAF: GABS 2000/2106 23008KT 9999 FEW025 PROB40 TEMPO 2015/2020 VRB15G35KT 4000 TSRA SCT025 FEW030CB

Værobservasjoner og værvarsel for over 4000 flyplasser (METAR- og TAF-rapporter).

Tilgjengelige stasjoner er representert av de røde og gule prikkene på kartet.

Hold musepekeren over prikken for å se navnet på stasjonen.

Klikk så for å se værobservasjoner og -varsler.

For å forandre kartet kan du klikke på den grønne knappen med svart kryss for å zoome inn, på den grønne knappen med strek for å zoome ut, eller på de grønne pilene for å se tilstøtende kart.


METAR-TAF: